Time;durP1;ratioP1;P1;durP2;ratioP2;P2;SDS_P1;SDS_P2;PMS_P1;PMS_P2;Temp;Humidity;BMP_temperature;BMP_pressure;BME280_temperature;BME280_humidity;BME280_pressure;Samples;Min_cycle;Max_cycle;Signal;HPM_P1;HPM_P2
2022/11/29 00:01:22;;;;;;;32.00;4.28;;;;;;;;;;5090156;28;20028;-53
2022/11/29 00:03:50;;;;;;;36.53;4.32;;;;;;;;;;5090841;28;20055;-53
2022/11/29 00:06:19;;;;;;;33.58;3.80;;;;;;;;;;5089939;28;20486;-54
2022/11/29 00:08:46;;;;;;;33.38;4.38;;;;;;;;;;5090432;28;20024;-51
2022/11/29 00:12:11;;;;;;;35.35;4.07;;;;;;;;;;5089927;28;20110;-50
2022/11/29 00:14:01;;;;;;;33.42;3.92;;;;;;;;;;5088554;28;20027;-53
2022/11/29 00:16:28;;;;;;;34.72;4.57;;;;;;;;;;5093942;28;20028;-48
2022/11/29 00:18:55;;;;;;;42.58;5.07;;;;;;;;;;5090064;28;20047;-54
2022/11/29 00:21:22;;;;;;;40.10;3.67;;;;;;;;;;5086417;28;20478;-53
2022/11/29 00:23:49;;;;;;;40.05;4.93;;;;;;;;;;5090444;28;20035;-53
2022/11/29 00:26:15;;;;;;;33.40;4.40;;;;;;;;;;5082409;28;20096;-51
2022/11/29 00:28:42;;;;;;;33.95;4.18;;;;;;;;;;5083064;28;20025;-50
2022/11/29 00:31:31;;;;;;;39.83;3.63;;;;;;;;;;5081973;28;20035;-51
2022/11/29 00:33:59;;;;;;;33.22;3.75;;;;;;;;;;5082565;28;20038;-52
2022/11/29 00:36:27;;;;;;;31.13;4.10;;;;;;;;;;5084504;28;20024;-49
2022/11/29 00:38:54;;;;;;;35.95;4.13;;;;;;;;;;5083193;28;20056;-49
2022/11/29 00:41:21;;;;;;;30.30;4.60;;;;;;;;;;5085096;28;20141;-50
2022/11/29 00:43:48;;;;;;;34.30;5.13;;;;;;;;;;5089192;28;20020;-51
2022/11/29 00:46:15;;;;;;;43.38;6.40;;;;;;;;;;5093880;28;20032;-47
2022/11/29 00:48:42;;;;;;;43.50;6.53;;;;;;;;;;5093724;28;20503;-49
2022/11/29 00:51:09;;;;;;;57.97;8.30;;;;;;;;;;5093595;28;20389;-47
2022/11/29 00:53:36;;;;;;;55.63;11.98;;;;;;;;;;5093291;28;20028;-54
2022/11/29 00:56:04;;;;;;;61.55;15.68;;;;;;;;;;5092417;28;20496;-53
2022/11/29 00:58:31;;;;;;;58.28;14.57;;;;;;;;;;5093249;28;20032;-50
2022/11/29 01:00:58;;;;;;;68.82;14.85;;;;;;;;;;5092373;28;20024;-47
2022/11/29 01:03:25;;;;;;;57.28;12.77;;;;;;;;;;5080768;28;20041;-50
2022/11/29 01:05:52;;;;;;;47.20;9.43;;;;;;;;;;5083652;28;20081;-50
2022/11/29 01:08:19;;;;;;;38.00;9.13;;;;;;;;;;5082911;28;20031;-53
2022/11/29 01:10:46;;;;;;;28.38;5.57;;;;;;;;;;5087297;28;20031;-50
2022/11/29 01:13:13;;;;;;;33.88;4.18;;;;;;;;;;5092532;28;20032;-49
2022/11/29 01:15:41;;;;;;;28.10;4.50;;;;;;;;;;5094178;28;20378;-51
2022/11/29 01:18:07;;;;;;;23.00;3.88;;;;;;;;;;5079158;28;20496;-51
2022/11/29 01:20:34;;;;;;;50.08;5.65;;;;;;;;;;5075132;28;20036;-50
2022/11/29 01:23:01;;;;;;;31.20;4.10;;;;;;;;;;5086694;28;20032;-46
2022/11/29 01:25:30;;;;;;;38.53;4.25;;;;;;;;;;5078358;28;20391;-48
2022/11/29 01:27:57;;;;;;;36.00;4.15;;;;;;;;;;5073276;28;20115;-51
2022/11/29 01:30:24;;;;;;;31.23;4.45;;;;;;;;;;5078960;28;20039;-48
2022/11/29 01:32:51;;;;;;;27.52;4.28;;;;;;;;;;5074309;28;20055;-48
2022/11/29 01:35:18;;;;;;;32.22;3.50;;;;;;;;;;5075117;28;20032;-49
2022/11/29 01:37:45;;;;;;;27.70;3.58;;;;;;;;;;5075382;28;20052;-51
2022/11/29 01:40:12;;;;;;;32.08;4.20;;;;;;;;;;5076262;28;20108;-49
2022/11/29 01:42:39;;;;;;;41.83;4.28;;;;;;;;;;5079709;28;20025;-50
2022/11/29 01:45:20;;;;;;;24.48;4.20;;;;;;;;;;5079587;28;20036;-52
2022/11/29 01:47:47;;;;;;;33.35;3.90;;;;;;;;;;5062730;28;20036;-48
2022/11/29 01:50:14;;;;;;;22.35;2.80;;;;;;;;;;5081746;28;20028;-50
2022/11/29 01:52:42;;;;;;;26.88;3.00;;;;;;;;;;5082045;28;20036;-49
2022/11/29 01:55:09;;;;;;;31.13;3.45;;;;;;;;;;5084521;28;20031;-53
2022/11/29 01:57:37;;;;;;;25.77;3.00;;;;;;;;;;5088414;28;20123;-52
2022/11/29 02:00:08;;;;;;;24.40;3.35;;;;;;;;;;5086913;28;20039;-51
2022/11/29 02:02:38;;;;;;;24.73;2.58;;;;;;;;;;5091168;28;20110;-48
2022/11/29 02:05:05;;;;;;;22.05;2.53;;;;;;;;;;5086189;28;20074;-51
2022/11/29 02:07:32;;;;;;;18.50;2.58;;;;;;;;;;5081730;28;20593;-50
2022/11/29 02:09:59;;;;;;;14.15;2.17;;;;;;;;;;5082121;28;20407;-49
2022/11/29 02:12:37;;;;;;;26.50;2.70;;;;;;;;;;5083947;28;20553;-53
2022/11/29 02:15:13;;;;;;;16.70;2.40;;;;;;;;;;5077431;28;20039;-50
2022/11/29 02:17:40;;;;;;;21.23;2.65;;;;;;;;;;5072383;28;20031;-48
2022/11/29 02:20:25;;;;;;;17.00;2.97;;;;;;;;;;5072703;28;20796;-49
2022/11/29 02:23:11;;;;;;;14.95;1.83;;;;;;;;;;5071318;28;20036;-51
2022/11/29 02:25:38;;;;;;;21.67;2.65;;;;;;;;;;5074769;28;20073;-53
2022/11/29 02:28:08;;;;;;;57.45;5.05;;;;;;;;;;5092120;28;20394;-52
2022/11/29 02:30:35;;;;;;;94.38;5.65;;;;;;;;;;5092732;28;20024;-49
2022/11/29 02:33:04;;;;;;;40.10;4.05;;;;;;;;;;5092764;28;20031;-52
2022/11/29 02:35:43;;;;;;;166.93;8.50;;;;;;;;;;5092525;28;20051;-50
2022/11/29 02:38:22;;;;;;;487.88;30.45;;;;;;;;;;5091683;28;20085;-49
2022/11/29 02:40:54;;;;;;;307.73;30.60;;;;;;;;;;5092562;28;20028;-52
2022/11/29 02:43:45;;;;;;;168.45;24.77;;;;;;;;;;5091967;28;20107;-51
2022/11/29 02:46:22;;;;;;;183.50;18.58;;;;;;;;;;5092366;28;20020;-53
2022/11/29 02:48:55;;;;;;;99.35;10.52;;;;;;;;;;5092405;28;20056;-53
2022/11/29 02:51:40;;;;;;;81.63;7.47;;;;;;;;;;5092435;28;20035;-48
2022/11/29 02:54:10;;;;;;;97.80;8.30;;;;;;;;;;5092360;28;20036;-49
2022/11/29 02:56:46;;;;;;;216.75;16.00;;;;;;;;;;5092442;28;20060;-53
2022/11/29 02:59:17;;;;;;;72.15;9.07;;;;;;;;;;5092191;28;20036;-49
2022/11/29 03:01:57;;;;;;;56.05;9.25;;;;;;;;;;5092306;28;20603;-53
2022/11/29 03:07:34;;;;;;;61.53;12.40;;;;;;;;;;5092778;28;20074;-52
2022/11/29 03:10:20;;;;;;;33.75;11.43;;;;;;;;;;5092260;28;20028;-51
2022/11/29 03:12:51;;;;;;;36.65;11.23;;;;;;;;;;5092250;28;20032;-51
2022/11/29 03:15:18;;;;;;;23.42;8.32;;;;;;;;;;5092157;28;20019;-48
2022/11/29 03:17:45;;;;;;;26.45;6.75;;;;;;;;;;5091977;28;20043;-50
2022/11/29 03:20:30;;;;;;;23.55;4.68;;;;;;;;;;5092040;28;20457;-49
2022/11/29 03:23:15;;;;;;;27.48;4.30;;;;;;;;;;5091981;28;20118;-48
2022/11/29 03:25:45;;;;;;;16.65;3.05;;;;;;;;;;5091914;28;20028;-51
2022/11/29 03:28:19;;;;;;;12.35;2.22;;;;;;;;;;5092088;28;20051;-51
2022/11/29 03:30:58;;;;;;;13.02;2.30;;;;;;;;;;5091984;28;20036;-49
2022/11/29 03:33:35;;;;;;;17.23;2.20;;;;;;;;;;5091946;28;20051;-51
2022/11/29 03:36:08;;;;;;;10.35;1.88;;;;;;;;;;5091854;28;20028;-54
2022/11/29 03:38:35;;;;;;;18.02;2.72;;;;;;;;;;5091670;28;20055;-54
2022/11/29 03:41:08;;;;;;;14.77;2.97;;;;;;;;;;5091968;28;20035;-48
2022/11/29 03:43:34;;;;;;;11.68;2.65;;;;;;;;;;5091919;28;20028;-48
2022/11/29 03:46:11;;;;;;;13.63;2.90;;;;;;;;;;5091783;28;20031;-50
2022/11/29 03:48:45;;;;;;;17.48;2.90;;;;;;;;;;5091882;28;20043;-49
2022/11/29 03:51:12;;;;;;;11.43;2.92;;;;;;;;;;5095688;28;20028;-55
2022/11/29 03:53:52;;;;;;;9.45;2.55;;;;;;;;;;5077559;28;20111;-52
2022/11/29 03:56:27;;;;;;;14.98;2.40;;;;;;;;;;5095734;28;20028;-54
2022/11/29 03:58:55;;;;;;;10.00;1.92;;;;;;;;;;5095705;28;20077;-51
2022/11/29 04:01:22;;;;;;;11.70;2.28;;;;;;;;;;5095859;28;20039;-48
2022/11/29 04:04:07;;;;;;;6.28;1.73;;;;;;;;;;5095533;28;20036;-52
2022/11/29 04:07:06;;;;;;;9.60;1.90;;;;;;;;;;5095399;28;20040;-54
2022/11/29 04:09:34;;;;;;;6.32;1.65;;;;;;;;;;5040750;28;20036;-48
2022/11/29 04:12:04;;;;;;;5.05;1.65;;;;;;;;;;5095405;28;20036;-50
2022/11/29 04:14:45;;;;;;;5.07;1.67;;;;;;;;;;5095577;28;20474;-49
2022/11/29 04:17:21;;;;;;;9.45;1.85;;;;;;;;;;5095427;28;20036;-49
2022/11/29 04:19:48;;;;;;;5.70;1.65;;;;;;;;;;5095473;28;20050;-50
2022/11/29 04:22:35;;;;;;;6.50;1.73;;;;;;;;;;5095208;28;20036;-48
2022/11/29 04:25:20;;;;;;;9.18;1.92;;;;;;;;;;5095175;28;20035;-53
2022/11/29 04:28:13;;;;;;;8.82;2.00;;;;;;;;;;5095198;28;20106;-50
2022/11/29 04:30:48;;;;;;;7.28;2.00;;;;;;;;;;5091093;28;20545;-49
2022/11/29 04:33:24;;;;;;;6.65;1.85;;;;;;;;;;5094997;28;20056;-47
2022/11/29 04:36:13;;;;;;;8.48;1.75;;;;;;;;;;5095165;28;20077;-53
2022/11/29 04:38:50;;;;;;;8.85;2.10;;;;;;;;;;5094799;28;20513;-50
2022/11/29 04:41:35;;;;;;;8.35;1.80;;;;;;;;;;5095138;28;20032;-51
2022/11/29 04:44:14;;;;;;;7.22;1.90;;;;;;;;;;5094759;28;20051;-50
2022/11/29 04:46:48;;;;;;;6.47;1.63;;;;;;;;;;5094858;28;20017;-51
2022/11/29 04:49:34;;;;;;;9.85;2.15;;;;;;;;;;5094759;28;20489;-52
2022/11/29 04:52:00;;;;;;;6.43;1.95;;;;;;;;;;5076484;28;20111;-51
2022/11/29 04:54:35;;;;;;;7.25;2.17;;;;;;;;;;5094682;28;20080;-50
2022/11/29 04:57:11;;;;;;;8.40;1.70;;;;;;;;;;5094764;28;20077;-49
2022/11/29 04:59:52;;;;;;;6.30;1.80;;;;;;;;;;5094246;28;20090;-54
2022/11/29 05:02:31;;;;;;;6.13;1.92;;;;;;;;;;5094557;28;20089;-52
2022/11/29 05:05:33;;;;;;;4.75;1.60;;;;;;;;;;5094471;28;20489;-49
2022/11/29 05:08:00;;;;;;;;;;;;;;;;;;4993244;28;20425;-50
2022/11/29 05:10:49;;;;;;;8.40;1.90;;;;;;;;;;5074490;28;19940;-52
2022/11/29 05:13:16;;;;;;;6.95;2.00;;;;;;;;;;5094397;28;20485;-49
2022/11/29 05:16:01;;;;;;;8.40;1.98;;;;;;;;;;5094295;28;20106;-50
2022/11/29 05:18:47;;;;;;;4.95;1.73;;;;;;;;;;5094030;28;20093;-50
2022/11/29 05:21:22;;;;;;;8.45;1.83;;;;;;;;;;5094260;28;20020;-51
2022/11/29 05:23:52;;;;;;;8.00;1.85;;;;;;;;;;5094196;28;20125;-49
2022/11/29 05:26:38;;;;;;;8.57;1.70;;;;;;;;;;5094009;28;20016;-50
2022/11/29 05:29:17;;;;;;;8.15;1.80;;;;;;;;;;5094094;28;20039;-52
2022/11/29 05:31:53;;;;;;;6.60;1.63;;;;;;;;;;5094020;28;20028;-50
2022/11/29 05:34:20;;;;;;;7.72;1.80;;;;;;;;;;5094035;28;20020;-53
2022/11/29 05:36:52;;;;;;;8.15;1.67;;;;;;;;;;5093958;28;20020;-52
2022/11/29 05:39:19;;;;;;;10.07;2.15;;;;;;;;;;5093452;28;20052;-50
2022/11/29 05:41:46;;;;;;;4.97;1.60;;;;;;;;;;5093680;28;20020;-51
2022/11/29 05:44:16;;;;;;;5.57;1.40;;;;;;;;;;5093855;28;20028;-49
2022/11/29 05:46:49;;;;;;;9.70;1.40;;;;;;;;;;5093723;28;20046;-53
2022/11/29 05:49:39;;;;;;;7.68;2.20;;;;;;;;;;5093641;28;20030;-48
2022/11/29 05:52:06;;;;;;;8.80;1.80;;;;;;;;;;5093594;28;20042;-51
2022/11/29 05:54:38;;;;;;;8.10;1.75;;;;;;;;;;5093501;28;20020;-51
2022/11/29 05:57:14;;;;;;;7.03;1.67;;;;;;;;;;5093553;28;20031;-52
2022/11/29 05:59:42;;;;;;;8.10;1.77;;;;;;;;;;5093463;28;20049;-51
2022/11/29 06:02:12;;;;;;;7.13;1.70;;;;;;;;;;5102272;28;20481;-54
2022/11/29 06:04:44;;;;;;;11.18;1.90;;;;;;;;;;5113673;28;20020;-50
2022/11/29 06:07:14;;;;;;;8.45;1.80;;;;;;;;;;5113493;28;20023;-50
2022/11/29 06:09:47;;;;;;;7.90;1.80;;;;;;;;;;5113695;28;20061;-51
2022/11/29 06:12:20;;;;;;;4.35;1.42;;;;;;;;;;5112647;28;20051;-51
2022/11/29 06:14:47;;;;;;;6.15;1.45;;;;;;;;;;5113480;28;20028;-53
2022/11/29 06:17:32;;;;;;;9.05;2.13;;;;;;;;;;5113367;28;20485;-53
2022/11/29 06:20:18;;;;;;;8.77;1.83;;;;;;;;;;5113500;28;20490;-50
2022/11/29 06:23:02;;;;;;;12.27;2.20;;;;;;;;;;5113460;28;20020;-48
2022/11/29 06:25:29;;;;;;;9.50;2.45;;;;;;;;;;5113142;28;20103;-47
2022/11/29 06:27:56;;;;;;;12.00;2.53;;;;;;;;;;5113201;28;20063;-48
2022/11/29 06:30:27;;;;;;;13.77;2.58;;;;;;;;;;5113291;28;20027;-51
2022/11/29 06:32:54;;;;;;;9.48;2.50;;;;;;;;;;5206660;23;20056;-62
2022/11/29 06:35:39;;;;;;;7.65;2.15;;;;;;;;;;5036264;28;20050;-62
2022/11/29 06:38:27;;;;;;;15.23;2.45;;;;;;;;;;5031250;28;20516;-62
2022/11/29 06:40:54;;;;;;;10.77;2.53;;;;;;;;;;5031378;28;20040;-62
2022/11/29 06:43:22;;;;;;;10.25;2.20;;;;;;;;;;5032496;28;20052;-62
2022/11/29 06:45:53;;;;;;;13.20;2.00;;;;;;;;;;5032568;28;20021;-62
2022/11/29 06:48:28;;;;;;;8.98;2.40;;;;;;;;;;5031198;28;20092;-62
2022/11/29 06:51:18;;;;;;;10.18;2.25;;;;;;;;;;5032477;28;20083;-62
2022/11/29 06:53:48;;;;;;;11.02;2.00;;;;;;;;;;5032406;28;20104;-62
2022/11/29 06:56:15;;;;;;;12.32;2.13;;;;;;;;;;5032367;28;20104;-62
2022/11/29 06:58:50;;;;;;;12.38;2.10;;;;;;;;;;5032225;28;20487;-62
2022/11/29 07:01:22;;;;;;;12.45;2.22;;;;;;;;;;5032238;28;20037;-62
2022/11/29 07:03:56;;;;;;;6.32;1.92;;;;;;;;;;5032329;28;20113;-62
2022/11/29 07:06:27;;;;;;;9.95;1.80;;;;;;;;;;5032294;28;20033;-62
2022/11/29 07:08:56;;;;;;;6.13;1.63;;;;;;;;;;5032161;28;20029;-62
2022/11/29 07:11:23;;;;;;;6.03;1.80;;;;;;;;;;5032121;28;20040;-62
2022/11/29 07:13:50;;;;;;;9.27;1.77;;;;;;;;;;5032023;28;20021;-62
2022/11/29 07:16:24;;;;;;;10.45;1.98;;;;;;;;;;5032102;28;20079;-62
2022/11/29 07:19:03;;;;;;;10.45;2.38;;;;;;;;;;5031861;28;20037;-62
2022/11/29 07:21:36;;;;;;;8.27;2.17;;;;;;;;;;5031961;28;20034;-62
2022/11/29 07:24:08;;;;;;;7.57;1.90;;;;;;;;;;5030522;28;20037;-62
2022/11/29 07:26:40;;;;;;;9.13;1.85;;;;;;;;;;5031983;28;20442;-62
2022/11/29 07:29:07;;;;;;;;;;;;;;;;;;5032441;28;20401;-62
2022/11/29 07:31:40;;;;;;;7.70;2.03;;;;;;;;;;5031703;28;19912;-62
2022/11/29 07:34:12;;;;;;;8.23;2.05;;;;;;;;;;5031907;28;20025;-62
2022/11/29 07:36:52;;;;;;;8.13;2.38;;;;;;;;;;5031854;28;20395;-62
2022/11/29 07:39:32;;;;;;;10.50;1.80;;;;;;;;;;5031863;28;20033;-62
2022/11/29 07:42:08;;;;;;;6.88;1.98;;;;;;;;;;5031690;28;20034;-62
2022/11/29 07:44:55;;;;;;;6.80;1.80;;;;;;;;;;5031799;28;20022;-62
2022/11/29 07:47:22;;;;;;;9.88;2.05;;;;;;;;;;5031771;28;20022;-62
2022/11/29 07:49:48;;;;;;;10.02;2.13;;;;;;;;;;5031695;28;20086;-62
2022/11/29 07:52:16;;;;;;;9.35;2.15;;;;;;;;;;5031669;28;20025;-62
2022/11/29 07:54:43;;;;;;;10.45;2.20;;;;;;;;;;5031695;28;20030;-62
2022/11/29 07:57:10;;;;;;;11.25;2.03;;;;;;;;;;5031639;28;20030;-62
2022/11/29 07:59:37;;;;;;;8.00;2.30;;;;;;;;;;5031581;28;20151;-62
2022/11/29 08:02:04;;;;;;;11.52;1.90;;;;;;;;;;5031568;28;20108;-62
2022/11/29 08:04:31;;;;;;;7.80;1.88;;;;;;;;;;5031838;28;20051;-62
2022/11/29 08:06:59;;;;;;;8.68;1.77;;;;;;;;;;5031576;28;20040;-62
2022/11/29 08:09:26;;;;;;;8.50;1.95;;;;;;;;;;5031489;28;20087;-62
2022/11/29 08:11:53;;;;;;;10.75;2.20;;;;;;;;;;5031428;28;20471;-62
2022/11/29 08:14:20;;;;;;;10.48;2.40;;;;;;;;;;5031535;28;20029;-62
2022/11/29 08:16:47;;;;;;;7.90;2.75;;;;;;;;;;5031497;28;20022;-62
2022/11/29 08:19:14;;;;;;;21.77;2.90;;;;;;;;;;5031369;28;20650;-62
2022/11/29 08:21:45;;;;;;;10.50;2.45;;;;;;;;;;5031312;28;20033;-62
2022/11/29 08:24:12;;;;;;;11.35;2.03;;;;;;;;;;5031718;28;20466;-62
2022/11/29 08:26:39;;;;;;;14.13;2.00;;;;;;;;;;5031464;28;20029;-62
2022/11/29 08:29:06;;;;;;;9.27;1.95;;;;;;;;;;5031481;28;20026;-62
2022/11/29 08:31:33;;;;;;;6.18;1.60;;;;;;;;;;5031166;28;20105;-62
2022/11/29 08:34:00;;;;;;;9.63;1.90;;;;;;;;;;5031397;28;20104;-62
2022/11/29 08:36:27;;;;;;;10.20;1.50;;;;;;;;;;5033662;28;20100;-62
2022/11/29 08:38:54;;;;;;;4.65;1.40;;;;;;;;;;5034991;28;20148;-62
2022/11/29 08:41:21;;;;;;;11.57;1.60;;;;;;;;;;5034824;28;20510;-62
2022/11/29 08:43:48;;;;;;;16.83;2.00;;;;;;;;;;5034843;28;20025;-62
2022/11/29 08:46:15;;;;;;;22.50;2.28;;;;;;;;;;5034860;28;20029;-62
2022/11/29 08:48:42;;;;;;;11.68;2.38;;;;;;;;;;5034726;28;20442;-62
2022/11/29 08:51:09;;;;;;;17.90;2.67;;;;;;;;;;5034590;28;20040;-62
2022/11/29 08:53:42;;;;;;;20.67;2.38;;;;;;;;;;5034685;28;20025;-62
2022/11/29 08:56:10;;;;;;;14.90;2.22;;;;;;;;;;5034816;28;20037;-62
2022/11/29 08:58:37;;;;;;;8.27;1.88;;;;;;;;;;5034503;28;20026;-62
2022/11/29 09:01:05;;;;;;;10.52;2.17;;;;;;;;;;5034480;28;20079;-62
2022/11/29 09:06:20;;;;;;;8.50;1.60;;;;;;;;;;5034383;28;20072;-62
2022/11/29 09:08:47;;;;;;;13.18;2.25;;;;;;;;;;5034376;28;20056;-62
2022/11/29 09:11:15;;;;;;;10.35;2.00;;;;;;;;;;5034293;28;20025;-62
2022/11/29 09:13:43;;;;;;;10.50;1.70;;;;;;;;;;5034328;28;20029;-62
2022/11/29 09:16:11;;;;;;;16.02;1.80;;;;;;;;;;5034261;28;20036;-62
2022/11/29 09:18:38;;;;;;;16.13;1.90;;;;;;;;;;5034034;28;20057;-62
2022/11/29 09:21:07;;;;;;;18.67;2.70;;;;;;;;;;5033971;28;20371;-62
2022/11/29 09:23:37;;;;;;;16.27;2.38;;;;;;;;;;5033989;28;20022;-62
2022/11/29 09:26:05;;;;;;;16.88;2.65;;;;;;;;;;5034070;28;20030;-62
2022/11/29 09:28:32;;;;;;;17.88;2.58;;;;;;;;;;5033965;28;20037;-61
2022/11/29 09:31:06;;;;;;;12.23;2.70;;;;;;;;;;5033317;28;20041;-62
2022/11/29 09:33:34;;;;;;;15.40;2.47;;;;;;;;;;5033400;28;20057;-63
2022/11/29 09:36:01;;;;;;;12.02;1.70;;;;;;;;;;5051740;28;20071;-62
2022/11/29 09:38:28;;;;;;;17.65;2.03;;;;;;;;;;5052585;28;20064;-62
2022/11/29 09:40:57;;;;;;;13.48;1.95;;;;;;;;;;5051580;28;20021;-62
2022/11/29 09:43:34;;;;;;;20.23;2.00;;;;;;;;;;5053023;28;20040;-61
2022/11/29 09:46:17;;;;;;;16.77;2.20;;;;;;;;;;5051481;28;20574;-63
2022/11/29 09:48:57;;;;;;;25.70;2.40;;;;;;;;;;5051634;28;20037;-62
2022/11/29 09:51:43;;;;;;;46.20;3.30;;;;;;;;;;5051910;28;20386;-63
2022/11/29 09:54:13;;;;;;;47.15;3.88;;;;;;;;;;5051114;28;20113;-64
2022/11/29 09:56:45;;;;;;;27.30;2.72;;;;;;;;;;5052239;28;20041;-64
2022/11/29 09:59:14;;;;;;;28.08;2.78;;;;;;;;;;5052576;28;20037;-62
2022/11/29 10:01:45;;;;;;;30.88;3.17;;;;;;;;;;5034495;28;20139;-61
2022/11/29 10:04:25;;;;;;;35.03;3.83;;;;;;;;;;5032427;28;20033;-61
2022/11/29 10:07:12;;;;;;;36.55;3.88;;;;;;;;;;5032879;28;20041;-61
2022/11/29 10:09:44;;;;;;;41.50;3.75;;;;;;;;;;5032562;28;20037;-61
2022/11/29 10:12:29;;;;;;;29.85;3.20;;;;;;;;;;5032241;28;20041;-63
2022/11/29 10:15:19;;;;;;;27.90;3.40;;;;;;;;;;5032746;28;20030;-63
2022/11/29 10:18:02;;;;;;;59.50;4.75;;;;;;;;;;5024715;28;20530;-62
2022/11/29 10:20:31;;;;;;;38.38;3.80;;;;;;;;;;5032147;28;20479;-62
2022/11/29 10:23:04;;;;;;;40.60;4.05;;;;;;;;;;5032482;28;20569;-64
2022/11/29 10:25:34;;;;;;;47.22;4.22;;;;;;;;;;5032346;28;20076;-63
2022/11/29 10:28:02;;;;;;;30.38;2.78;;;;;;;;;;5032161;28;20060;-63
2022/11/29 10:30:29;;;;;;;35.47;3.92;;;;;;;;;;5032258;28;20037;-63
2022/11/29 10:32:57;;;;;;;37.63;3.17;;;;;;;;;;5031963;28;20130;-63
2022/11/29 10:35:24;;;;;;;22.42;2.78;;;;;;;;;;5031919;28;20040;-62
2022/11/29 10:37:53;;;;;;;49.85;4.88;;;;;;;;;;5032166;28;20052;-61
2022/11/29 10:40:30;;;;;;;37.28;3.80;;;;;;;;;;5032341;28;20125;-60
2022/11/29 10:42:57;;;;;;;26.23;3.25;;;;;;;;;;5031974;28;20033;-60
2022/11/29 10:45:24;;;;;;;53.53;4.45;;;;;;;;;;5031994;28;20045;-60
2022/11/29 10:47:52;;;;;;;37.75;3.55;;;;;;;;;;5032159;28;20041;-60
2022/11/29 10:50:24;;;;;;;40.10;3.70;;;;;;;;;;5031820;28;20419;-62
2022/11/29 10:52:51;;;;;;;28.73;3.53;;;;;;;;;;5031949;28;20451;-62
2022/11/29 10:55:18;;;;;;;56.67;4.75;;;;;;;;;;5031891;28;20026;-62
2022/11/29 10:58:03;;;;;;;57.85;4.50;;;;;;;;;;5031571;28;20434;-60
2022/11/29 11:00:29;;;;;;;47.78;4.18;;;;;;;;;;5031772;28;20030;-60
2022/11/29 11:03:12;;;;;;;63.83;5.60;;;;;;;;;;5031907;28;20427;-60
2022/11/29 11:05:39;;;;;;;48.40;4.43;;;;;;;;;;5031803;28;20784;-62
2022/11/29 11:08:16;;;;;;;61.80;4.10;;;;;;;;;;5031673;28;20033;-61
2022/11/29 11:10:52;;;;;;;28.75;2.90;;;;;;;;;;5031567;28;20041;-61
2022/11/29 11:13:24;;;;;;;35.17;3.63;;;;;;;;;;5030792;28;20041;-62
2022/11/29 11:15:55;;;;;;;68.70;4.97;;;;;;;;;;5030184;28;20030;-58
2022/11/29 11:18:25;;;;;;;130.13;7.05;;;;;;;;;;5030690;28;20026;-65
2022/11/29 11:20:53;;;;;;;111.50;6.22;;;;;;;;;;5030649;28;20038;-62
2022/11/29 11:23:25;;;;;;;78.70;6.07;;;;;;;;;;5031442;28;20033;-63
2022/11/29 11:26:00;;;;;;;68.82;6.65;;;;;;;;;;5031307;28;20029;-64
2022/11/29 11:28:32;;;;;;;41.95;5.30;;;;;;;;;;5030724;28;20630;-64
2022/11/29 11:31:04;;;;;;;55.83;4.85;;;;;;;;;;5030023;28;20388;-63
2022/11/29 11:33:33;;;;;;;46.00;4.60;;;;;;;;;;5030899;28;20512;-63
2022/11/29 11:36:01;;;;;;;33.08;4.82;;;;;;;;;;5031109;28;20029;-64
2022/11/29 11:38:28;;;;;;;29.58;5.38;;;;;;;;;;5031025;28;20434;-63
2022/11/29 11:41:07;;;;;;;95.30;8.10;;;;;;;;;;5029492;28;20492;-63
2022/11/29 11:43:34;;;;;;;160.93;27.85;;;;;;;;;;5030997;28;20041;-63
2022/11/29 11:46:01;;;;;;;67.10;9.32;;;;;;;;;;5031065;28;20442;-63
2022/11/29 11:48:28;;;;;;;76.85;7.88;;;;;;;;;;5031004;28;20108;-63
2022/11/29 11:50:57;;;;;;;59.75;5.95;;;;;;;;;;5031307;28;20026;-63
2022/11/29 11:53:26;;;;;;;52.47;5.03;;;;;;;;;;5031441;28;20104;-63
2022/11/29 11:55:53;;;;;;;50.35;4.70;;;;;;;;;;5030888;28;20037;-61
2022/11/29 11:58:28;;;;;;;35.85;4.32;;;;;;;;;;5045410;28;20029;-65
2022/11/29 12:01:14;;;;;;;27.17;3.80;;;;;;;;;;5050487;28;20111;-65
2022/11/29 12:03:56;;;;;;;23.98;3.33;;;;;;;;;;5050526;28;20065;-64
2022/11/29 12:06:23;;;;;;;;;;;;;;;;;;5051222;28;20021;-63
2022/11/29 12:08:51;;;;;;;18.30;3.05;;;;;;;;;;5050975;28;20353;-64
2022/11/29 12:11:18;;;;;;;23.73;3.10;;;;;;;;;;5051731;28;20105;-64
2022/11/29 12:13:50;;;;;;;31.02;3.90;;;;;;;;;;5054943;28;20157;-63
2022/11/29 12:16:26;;;;;;;21.20;3.63;;;;;;;;;;5054896;28;20386;-63
2022/11/29 12:18:57;;;;;;;20.17;3.15;;;;;;;;;;5054408;28;20522;-64
2022/11/29 12:21:27;;;;;;;20.08;3.15;;;;;;;;;;5054123;28;20029;-63
2022/11/29 12:23:54;;;;;;;19.15;2.95;;;;;;;;;;5054069;28;20029;-63
2022/11/29 12:26:26;;;;;;;18.17;2.70;;;;;;;;;;5054213;28;20025;-63
2022/11/29 12:28:53;;;;;;;18.60;2.17;;;;;;;;;;5054821;28;20385;-64
2022/11/29 12:31:28;;;;;;;34.72;4.05;;;;;;;;;;5054485;28;20429;-65
2022/11/29 12:34:24;;;;;;;37.17;3.03;;;;;;;;;;5052880;28;20053;-64
2022/11/29 12:37:03;;;;;;;25.70;1.98;;;;;;;;;;5037998;28;20041;-63
2022/11/29 12:39:30;;;;;;;24.00;2.42;;;;;;;;;;5053946;28;20032;-63
2022/11/29 12:42:15;;;;;;;15.77;2.47;;;;;;;;;;5054575;28;20087;-63
2022/11/29 12:44:54;;;;;;;18.33;2.20;;;;;;;;;;5054468;28;20032;-63
2022/11/29 12:47:24;;;;;;;17.33;2.17;;;;;;;;;;5052453;28;20032;-63
2022/11/29 12:50:07;;;;;;;16.40;2.28;;;;;;;;;;5054536;28;20029;-63
2022/11/29 12:52:40;;;;;;;16.83;2.40;;;;;;;;;;5052708;28;20036;-63
2022/11/29 12:55:19;;;;;;;20.60;2.40;;;;;;;;;;5054068;28;20163;-63
2022/11/29 12:57:52;;;;;;;17.15;2.22;;;;;;;;;;5052129;28;20029;-64
2022/11/29 13:00:20;;;;;;;16.55;2.17;;;;;;;;;;5053871;28;20057;-65
2022/11/29 13:03:05;;;;;;;19.75;2.20;;;;;;;;;;5053851;28;20098;-65
2022/11/29 13:05:32;;;;;;;22.00;2.53;;;;;;;;;;5053967;28;20428;-64
2022/11/29 13:08:15;;;;;;;15.38;2.05;;;;;;;;;;5053704;28;20032;-64
2022/11/29 13:10:45;;;;;;;41.55;5.68;;;;;;;;;;5052306;28;20072;-64
2022/11/29 13:13:30;;;;;;;19.92;3.10;;;;;;;;;;5053705;28;20113;-64
2022/11/29 13:16:10;;;;;;;17.33;2.05;;;;;;;;;;5053841;28;20021;-64
2022/11/29 13:18:39;;;;;;;13.32;1.88;;;;;;;;;;5052034;28;20052;-65
2022/11/29 13:21:17;;;;;;;20.02;2.05;;;;;;;;;;5053128;28;20072;-64
2022/11/29 13:23:47;;;;;;;27.77;3.10;;;;;;;;;;5053511;28;20129;-64
2022/11/29 13:26:16;;;;;;;14.38;2.08;;;;;;;;;;5053565;28;20033;-64
2022/11/29 13:28:45;;;;;;;10.18;1.50;;;;;;;;;;5053390;28;20059;-63
2022/11/29 13:31:19;;;;;;;5.78;0.90;;;;;;;;;;5049237;28;20112;-62
2022/11/29 13:33:52;;;;;;;15.18;1.48;;;;;;;;;;5033186;28;20484;-64
2022/11/29 13:36:19;;;;;;;6.90;1.90;;;;;;;;;;5033396;28;20043;-65
2022/11/29 13:39:06;;;;;;;6.20;1.10;;;;;;;;;;5033077;28;20534;-64
2022/11/29 13:41:51;;;;;;;6.05;1.27;;;;;;;;;;4991900;28;20411;-64
2022/11/29 13:44:27;;;;;;;17.02;2.00;;;;;;;;;;5033340;28;20488;-66
2022/11/29 13:47:00;;;;;;;19.10;2.47;;;;;;;;;;5032844;28;20067;-66
2022/11/29 13:49:47;;;;;;;24.08;2.45;;;;;;;;;;5033025;28;20033;-63
2022/11/29 13:52:28;;;;;;;12.77;1.92;;;;;;;;;;5002386;28;20044;-63
2022/11/29 13:55:06;;;;;;;17.02;2.28;;;;;;;;;;5032573;28;20412;-63
2022/11/29 13:57:49;;;;;;;13.68;2.15;;;;;;;;;;5031572;28;20052;-63
2022/11/29 14:00:38;;;;;;;17.60;2.25;;;;;;;;;;5033039;28;20044;-63
2022/11/29 14:03:24;;;;;;;19.83;2.65;;;;;;;;;;5032936;28;20091;-63
2022/11/29 14:06:03;;;;;;;20.17;3.00;;;;;;;;;;5032697;28;20044;-62
2022/11/29 14:08:31;;;;;;;23.73;2.92;;;;;;;;;;5032248;28;20025;-63
2022/11/29 14:11:01;;;;;;;18.70;2.58;;;;;;;;;;5032485;28;20514;-63
2022/11/29 14:13:33;;;;;;;22.55;2.97;;;;;;;;;;5032778;28;20029;-66
2022/11/29 14:16:03;;;;;;;20.15;3.03;;;;;;;;;;5032234;28;20038;-67
2022/11/29 14:18:42;;;;;;;15.63;3.22;;;;;;;;;;5032502;28;20734;-67
2022/11/29 14:21:09;;;;;;;17.10;2.83;;;;;;;;;;5032267;28;20033;-63
2022/11/29 14:23:39;;;;;;;15.23;3.08;;;;;;;;;;5032288;28;20101;-63
2022/11/29 14:26:06;;;;;;;24.83;4.25;;;;;;;;;;5032517;28;20037;-65
2022/11/29 14:28:34;;;;;;;27.25;5.47;;;;;;;;;;5030721;28;20092;-63
2022/11/29 14:31:02;;;;;;;28.65;6.82;;;;;;;;;;5031948;28;20506;-63
2022/11/29 14:34:01;;;;;;;39.80;9.52;;;;;;;;;;5031453;28;20056;-62
2022/11/29 14:36:37;;;;;;;42.17;11.10;;;;;;;;;;4999035;28;20033;-62
2022/11/29 14:39:03;;;;;;;56.25;11.38;;;;;;;;;;5031772;28;20040;-62
2022/11/29 14:41:49;;;;;;;54.17;10.55;;;;;;;;;;5031874;28;20135;-65
2022/11/29 14:44:18;;;;;;;35.85;9.73;;;;;;;;;;5032047;28;20427;-65
2022/11/29 14:46:45;;;;;;;42.70;9.63;;;;;;;;;;5031694;28;20057;-65
2022/11/29 14:49:23;;;;;;;42.63;9.48;;;;;;;;;;5031850;28;20136;-62
2022/11/29 14:52:23;;;;;;;30.98;9.20;;;;;;;;;;5031854;28;20045;-62
2022/11/29 14:54:54;;;;;;;37.38;7.78;;;;;;;;;;4998764;28;20041;-62
2022/11/29 14:57:40;;;;;;;37.65;8.18;;;;;;;;;;5031773;28;20033;-62
2022/11/29 15:00:11;;;;;;;42.80;8.32;;;;;;;;;;5031556;28;20029;-62
2022/11/29 15:02:44;;;;;;;41.15;8.52;;;;;;;;;;5031672;28;20029;-62
2022/11/29 15:05:24;;;;;;;42.45;7.72;;;;;;;;;;5031602;28;20038;-65
2022/11/29 15:08:00;;;;;;;41.38;7.70;;;;;;;;;;5031456;28;20026;-65
2022/11/29 15:10:30;;;;;;;40.70;6.95;;;;;;;;;;5031428;28;20028;-66
2022/11/29 15:12:59;;;;;;;43.63;8.00;;;;;;;;;;5031657;28;20430;-62